Terminal Aerodrome Forecast
Issued by NWS Nashville, TN

Home | Current Version | Previous Version | Text Only | Print | Product List | Glossary On
Versions: 1 2 3 4 5 6 7 8 9 10 11 12 13 14 15 16 17 18
000
FTUS44 KOHX 281740
TAFCSV
TAF
KCSV 281740Z 2818/2918 17007KT P6SM BKN150
     FM290000 VRB03KT P6SM SCT100 BKN250
     FM290900 00000KT 4SM BR SCT100 SCT250
     FM291100 00000KT 2SM BR BKN040
     FM291400 26005KT P6SM VCSH BKN035=

USA.gov is the U.S. government's official web portal to all federal, state and local government web resources and services.